Time;durP1;ratioP1;P1;durP2;ratioP2;P2;SDS_P1;SDS_P2;PMS_P1;PMS_P2;Temp;Humidity;BMP_temperature;BMP_pressure;BME280_temperature;BME280_humidity;BME280_pressure;Samples;Min_cycle;Max_cycle;Signal;HPM_P1;HPM_P2
2023/04/01 00:00:22;;;;;;;81.40;34.70;;;;;;;;;;6245833;23;20162;-90
2023/04/01 00:03:30;;;;;;;13.50;4.18;;;;;;;;;;6246147;23;20243;-90
2023/04/01 00:06:35;;;;;;;35.97;13.10;;;;;;;;;;6244088;23;20154;-90
2023/04/01 00:09:40;;;;;;;9.98;3.25;;;;;;;;;;6244478;22;21061;-91
2023/04/01 00:12:46;;;;;;;6.05;2.10;;;;;;;;;;6245504;22;20228;-92
2023/04/01 00:15:53;;;;;;;7.35;2.75;;;;;;;;;;6263421;22;20167;-88
2023/04/01 00:18:58;;;;;;;6.63;1.48;;;;;;;;;;6245125;23;20162;-91
2023/04/01 00:22:26;;;;;;;5.97;2.30;;;;;;;;;;6242498;23;20621;-89
2023/04/01 00:25:31;;;;;;;8.38;2.63;;;;;;;;;;6243632;22;20243;-91
2023/04/01 00:28:36;;;;;;;4.80;1.70;;;;;;;;;;6243295;23;20490;-90
2023/04/01 00:31:43;;;;;;;5.13;1.77;;;;;;;;;;6243864;23;20166;-88
2023/04/01 00:34:52;;;;;;;8.18;2.30;;;;;;;;;;6243186;23;20205;-89
2023/04/01 00:37:57;;;;;;;6.55;2.17;;;;;;;;;;6243525;22;20174;-88
2023/04/01 00:41:02;;;;;;;3.15;1.40;;;;;;;;;;6243848;23;20268;-90
2023/04/01 00:44:17;;;;;;;6.63;1.42;;;;;;;;;;6242568;23;20237;-91
2023/04/01 00:47:25;;;;;;;5.57;1.58;;;;;;;;;;6242298;23;20170;-89
2023/04/01 00:50:30;;;;;;;8.52;1.45;;;;;;;;;;6243464;23;20166;-92
2023/04/01 00:53:38;;;;;;;4.07;1.10;;;;;;;;;;6242808;23;20241;-90
2023/04/01 00:56:48;;;;;;;7.50;0.98;;;;;;;;;;6243301;23;20245;-94
2023/04/01 00:59:55;;;;;;;4.28;0.95;;;;;;;;;;6242927;23;20170;-91
2023/04/01 01:03:04;;;;;;;2.78;0.80;;;;;;;;;;6242911;23;20194;-92
2023/04/01 01:06:11;;;;;;;2.65;0.85;;;;;;;;;;6243337;23;20612;-90
2023/04/01 01:09:35;;;;;;;2.50;0.90;;;;;;;;;;6243033;23;20167;-90
2023/04/01 01:12:42;;;;;;;3.58;0.90;;;;;;;;;;6242399;23;20158;-92
2023/04/01 01:15:48;;;;;;;3.63;1.00;;;;;;;;;;6241985;23;20196;-90
2023/04/01 01:18:59;;;;;;;6.18;1.05;;;;;;;;;;6240322;23;20170;-90
2023/04/01 01:22:30;;;;;;;3.30;0.88;;;;;;;;;;6241607;23;20178;-90
2023/04/01 01:25:41;;;;;;;5.88;1.20;;;;;;;;;;6243153;23;20162;-92
2023/04/01 01:28:51;;;;;;;4.80;0.85;;;;;;;;;;6243623;23;20198;-89
2023/04/01 01:32:03;;;;;;;4.25;0.80;;;;;;;;;;6243004;23;20161;-89
2023/04/01 01:35:18;;;;;;;5.68;1.00;;;;;;;;;;6244304;22;20186;-91
2023/04/01 01:38:24;;;;;;;5.28;0.85;;;;;;;;;;6242759;22;20650;-91
2023/04/01 01:41:36;;;;;;;4.47;0.90;;;;;;;;;;6242715;23;20206;-91
2023/04/01 01:44:43;;;;;;;2.13;0.90;;;;;;;;;;6242643;23;20238;-93
2023/04/01 01:47:50;;;;;;;2.35;0.73;;;;;;;;;;6240979;23;20190;-90
2023/04/01 01:50:56;;;;;;;3.08;0.70;;;;;;;;;;6243265;23;20190;-92
2023/04/01 01:54:02;;;;;;;1.35;0.60;;;;;;;;;;6243544;23;20162;-90
2023/04/01 01:57:10;;;;;;;3.50;0.80;;;;;;;;;;6242230;23;20194;-93
2023/04/01 02:00:21;;;;;;;2.75;0.70;;;;;;;;;;6243841;23;20179;-91
2023/04/01 02:04:02;;;;;;;2.13;0.70;;;;;;;;;;6241587;23;20190;-90
2023/04/01 02:07:10;;;;;;;3.40;0.82;;;;;;;;;;6242263;23;20146;-92
2023/04/01 02:10:17;;;;;;;7.63;1.00;;;;;;;;;;6242329;23;20171;-88
2023/04/01 02:13:28;;;;;;;2.50;0.80;;;;;;;;;;6243081;23;20313;-89
2023/04/01 02:16:36;;;;;;;2.80;0.68;;;;;;;;;;6241159;23;20279;-89
2023/04/01 02:19:45;;;;;;;3.00;1.15;;;;;;;;;;6240198;22;20238;-88
2023/04/01 02:22:56;;;;;;;5.07;0.80;;;;;;;;;;6241374;23;20238;-90
2023/04/01 02:26:02;;;;;;;1.67;0.63;;;;;;;;;;6241829;23;20297;-88
2023/04/01 02:29:08;;;;;;;7.00;0.93;;;;;;;;;;6242498;23;20166;-92
2023/04/01 02:32:15;;;;;;;2.75;0.80;;;;;;;;;;6241318;22;20182;-89
2023/04/01 02:35:20;;;;;;;6.70;2.17;;;;;;;;;;6242442;22;20684;-87
2023/04/01 02:38:27;;;;;;;5.28;1.55;;;;;;;;;;6244808;23;20166;-89
2023/04/01 02:41:33;;;;;;;2.45;1.20;;;;;;;;;;6243987;23;20257;-89
2023/04/01 02:44:38;;;;;;;3.25;0.95;;;;;;;;;;6244706;23;20193;-90
2023/04/01 02:47:43;;;;;;;1.60;0.70;;;;;;;;;;6242820;23;20186;-89
2023/04/01 02:50:49;;;;;;;2.28;0.60;;;;;;;;;;6243925;22;20162;-88
2023/04/01 02:53:56;;;;;;;4.47;0.98;;;;;;;;;;6244043;23;20150;-89
2023/04/01 02:57:01;;;;;;;2.97;0.60;;;;;;;;;;6244492;23;20807;-88
2023/04/01 03:00:10;;;;;;;1.13;0.60;;;;;;;;;;6244880;23;20155;-90
2023/04/01 03:03:44;;;;;;;2.33;0.70;;;;;;;;;;6243150;23;20190;-88
2023/04/01 03:06:49;;;;;;;2.60;0.75;;;;;;;;;;6245070;22;20155;-90
2023/04/01 03:09:56;;;;;;;2.47;1.00;;;;;;;;;;6244114;23;20567;-89
2023/04/01 03:13:01;;;;;;;4.47;0.90;;;;;;;;;;6243884;23;20170;-91
2023/04/01 03:16:07;;;;;;;2.05;0.82;;;;;;;;;;6242969;23;20182;-92
2023/04/01 03:19:15;;;;;;;4.53;0.70;;;;;;;;;;6245455;22;20158;-90
2023/04/01 03:22:27;;;;;;;1.40;0.60;;;;;;;;;;6245308;23;20210;-92
2023/04/01 03:25:33;;;;;;;2.80;0.80;;;;;;;;;;6244731;22;20621;-91
2023/04/01 03:28:39;;;;;;;1.85;0.80;;;;;;;;;;6243166;23;20238;-91
2023/04/01 03:31:45;;;;;;;2.17;0.63;;;;;;;;;;6243091;23;20174;-89
2023/04/01 03:34:50;;;;;;;1.70;0.60;;;;;;;;;;6245322;22;20150;-90
2023/04/01 03:37:56;;;;;;;3.45;0.80;;;;;;;;;;6245447;22;20214;-93
2023/04/01 03:41:02;;;;;;;1.17;0.60;;;;;;;;;;6244987;23;20167;-89
2023/04/01 03:44:09;;;;;;;4.05;0.77;;;;;;;;;;6244522;23;20182;-90
2023/04/01 03:47:14;;;;;;;2.03;0.70;;;;;;;;;;6242876;23;20653;-92
2023/04/01 03:50:19;;;;;;;2.30;0.68;;;;;;;;;;6244460;22;20159;-89
2023/04/01 03:53:26;;;;;;;4.38;0.70;;;;;;;;;;6244893;22;20170;-92
2023/04/01 03:56:36;;;;;;;4.20;1.02;;;;;;;;;;6244847;23;20170;-89
2023/04/01 03:59:41;;;;;;;2.35;0.85;;;;;;;;;;6245652;23;20170;-89
2023/04/01 04:02:52;;;;;;;1.98;0.70;;;;;;;;;;6242558;23;20167;-89
2023/04/01 04:06:03;;;;;;;3.97;0.77;;;;;;;;;;6243697;23;20175;-89
2023/04/01 04:09:10;;;;;;;3.20;1.30;;;;;;;;;;6242733;23;20171;-91
2023/04/01 04:12:16;;;;;;;3.47;0.68;;;;;;;;;;6244118;23;20170;-89
2023/04/01 04:15:21;;;;;;;3.50;0.73;;;;;;;;;;6243049;23;20210;-90
2023/04/01 04:18:27;;;;;;;1.27;0.70;;;;;;;;;;6242475;23;20255;-89
2023/04/01 04:21:36;;;;;;;3.95;0.70;;;;;;;;;;6242628;22;20157;-88
2023/04/01 04:24:41;;;;;;;3.17;0.70;;;;;;;;;;6242875;23;20241;-88
2023/04/01 04:27:54;;;;;;;5.35;0.70;;;;;;;;;;6244400;23;20174;-91
2023/04/01 04:31:00;;;;;;;4.93;0.70;;;;;;;;;;6243891;23;20182;-90
2023/04/01 04:34:05;;;;;;;3.67;0.80;;;;;;;;;;6243251;23;20217;-90
2023/04/01 04:37:14;;;;;;;1.08;0.55;;;;;;;;;;6243743;22;20192;-89
2023/04/01 04:40:19;;;;;;;2.40;0.65;;;;;;;;;;6243904;22;20167;-92
2023/04/01 04:43:27;;;;;;;1.40;0.70;;;;;;;;;;6243810;23;20171;-89
2023/04/01 04:46:32;;;;;;;2.05;0.70;;;;;;;;;;6242532;23;20233;-92
2023/04/01 04:49:47;;;;;;;1.95;0.80;;;;;;;;;;6240363;23;20617;-91
2023/04/01 04:52:53;;;;;;;3.78;1.08;;;;;;;;;;6239997;23;20503;-88
2023/04/01 04:55:58;;;;;;;1.58;0.55;;;;;;;;;;6240429;23;20155;-90
2023/04/01 04:59:22;;;;;;;1.38;0.70;;;;;;;;;;6239992;23;20764;-92
2023/04/01 05:02:35;;;;;;;3.10;0.95;;;;;;;;;;6240419;23;20165;-90
2023/04/01 05:05:41;;;;;;;2.25;0.65;;;;;;;;;;6239963;23;20171;-88
2023/04/01 05:08:46;;;;;;;3.35;0.80;;;;;;;;;;6239198;23;20211;-90
2023/04/01 05:11:52;;;;;;;3.67;0.85;;;;;;;;;;6239252;23;20185;-92
2023/04/01 05:14:59;;;;;;;3.63;0.80;;;;;;;;;;6238796;23;20162;-88
2023/04/01 05:18:05;;;;;;;2.17;0.70;;;;;;;;;;6239955;23;20634;-92
2023/04/01 05:21:15;;;;;;;2.35;0.70;;;;;;;;;;6238957;23;20170;-90
2023/04/01 05:24:20;;;;;;;3.33;0.70;;;;;;;;;;6240624;23;20190;-89
2023/04/01 05:27:25;;;;;;;0.98;0.60;;;;;;;;;;6240322;23;20298;-91
2023/04/01 05:30:32;;;;;;;2.05;0.70;;;;;;;;;;6239992;23;20236;-90
2023/04/01 05:33:40;;;;;;;1.80;0.68;;;;;;;;;;6240041;23;20166;-90
2023/04/01 05:36:45;;;;;;;2.28;0.73;;;;;;;;;;6238992;23;20665;-92
2023/04/01 05:39:55;;;;;;;1.88;0.60;;;;;;;;;;6241345;23;20213;-89
2023/04/01 05:43:00;;;;;;;1.95;0.60;;;;;;;;;;6241230;23;20170;-89
2023/04/01 05:46:07;;;;;;;5.05;0.90;;;;;;;;;;6245629;23;20215;-91
2023/04/01 05:49:25;;;;;;;1.15;0.55;;;;;;;;;;6246853;23;20186;-89
2023/04/01 05:52:30;;;;;;;1.92;0.70;;;;;;;;;;6244245;23;20150;-90
2023/04/01 05:55:36;;;;;;;2.00;0.88;;;;;;;;;;6243032;23;20174;-90
2023/04/01 05:58:42;;;;;;;3.05;0.80;;;;;;;;;;6243969;23;20166;-90
2023/04/01 06:01:51;;;;;;;2.42;0.80;;;;;;;;;;6262438;23;20270;-90
2023/04/01 06:05:13;;;;;;;1.35;0.50;;;;;;;;;;6243802;23;20262;-90
2023/04/01 06:08:19;;;;;;;2.25;0.60;;;;;;;;;;6241919;22;20166;-90
2023/04/01 06:11:30;;;;;;;2.55;0.60;;;;;;;;;;6246915;23;20166;-92
2023/04/01 06:14:39;;;;;;;2.60;0.50;;;;;;;;;;6246856;23;20223;-90
2023/04/01 06:17:57;;;;;;;2.83;0.55;;;;;;;;;;6247062;23;20166;-90
2023/04/01 06:21:09;;;;;;;1.52;0.52;;;;;;;;;;6246037;23;20163;-92
2023/04/01 06:24:30;;;;;;;1.33;0.60;;;;;;;;;;6246737;23;20290;-89
2023/04/01 06:27:43;;;;;;;1.65;0.60;;;;;;;;;;6246079;23;20245;-89
2023/04/01 06:30:52;;;;;;;0.93;0.50;;;;;;;;;;6246634;23;20158;-91
2023/04/01 06:34:15;;;;;;;1.20;0.70;;;;;;;;;;6246563;23;20154;-93
2023/04/01 06:37:27;;;;;;;0.40;0.40;;;;;;;;;;6246563;23;20167;-92
2023/04/01 06:40:50;;;;;;;0.95;0.60;;;;;;;;;;6245669;23;20174;-91
2023/04/01 06:44:00;;;;;;;1.00;0.50;;;;;;;;;;6244439;23;20214;-91
2023/04/01 06:47:30;;;;;;;2.60;1.25;;;;;;;;;;6261970;23;20162;-92
2023/04/01 06:50:58;;;;;;;0.50;0.50;;;;;;;;;;6261617;23;20170;-89
2023/04/01 06:54:36;;;;;;;4.20;0.80;;;;;;;;;;6189491;23;20191;-91
2023/04/01 06:57:47;;;;;;;1.73;0.50;;;;;;;;;;6261754;22;20249;-90
2023/04/01 07:00:54;;;;;;;1.85;0.60;;;;;;;;;;6244177;23;20170;-92
2023/04/01 07:04:02;;;;;;;1.33;0.70;;;;;;;;;;6244797;23;20170;-91
2023/04/01 07:07:17;;;;;;;1.10;0.60;;;;;;;;;;6243012;23;20682;-93
2023/04/01 07:10:36;;;;;;;0.65;0.50;;;;;;;;;;6244156;22;20170;-89
2023/04/01 07:14:03;;;;;;;1.73;0.82;;;;;;;;;;6263616;22;20226;-90
2023/04/01 07:17:11;;;;;;;1.35;0.60;;;;;;;;;;6242764;23;20177;-89
2023/04/01 07:20:21;;;;;;;3.55;0.73;;;;;;;;;;6242612;23;20167;-90
2023/04/01 07:23:30;;;;;;;1.88;0.60;;;;;;;;;;6245030;22;20231;-91
2023/04/01 07:27:01;;;;;;;1.08;0.60;;;;;;;;;;6247095;23;20224;-89
2023/04/01 07:30:15;;;;;;;1.38;0.50;;;;;;;;;;6246676;23;20175;-92
2023/04/01 07:33:23;;;;;;;1.80;0.50;;;;;;;;;;6243151;22;20163;-91
2023/04/01 07:36:33;;;;;;;0.50;0.50;;;;;;;;;;6247786;22;20170;-91
2023/04/01 07:39:49;;;;;;;1.85;0.60;;;;;;;;;;6244622;23;20162;-90
2023/04/01 07:43:09;;;;;;;1.45;0.60;;;;;;;;;;6246284;22;20210;-91
2023/04/01 07:46:30;;;;;;;3.15;0.80;;;;;;;;;;6244103;23;20206;-89
2023/04/01 07:49:40;;;;;;;1.88;0.73;;;;;;;;;;6241427;23;20170;-91
2023/04/01 07:52:49;;;;;;;1.48;0.60;;;;;;;;;;6242372;23;20210;-88
2023/04/01 07:56:07;;;;;;;1.08;0.45;;;;;;;;;;6243692;23;20171;-90
2023/04/01 07:59:20;;;;;;;1.55;0.60;;;;;;;;;;6245753;23;20178;-90
2023/04/01 08:06:27;;;;;;;2.60;0.90;;;;;;;;;;6245468;23;20239;-92
2023/04/01 08:09:35;;;;;;;1.33;0.60;;;;;;;;;;6243236;23;20166;-92
2023/04/01 08:13:16;;;;;;;1.38;0.60;;;;;;;;;;6245615;22;20185;-87
2023/04/01 08:16:47;;;;;;;1.60;0.80;;;;;;;;;;6261398;23;20170;-91
2023/04/01 08:20:04;;;;;;;1.85;0.60;;;;;;;;;;6243713;23;20218;-92
2023/04/01 08:23:14;;;;;;;1.02;0.60;;;;;;;;;;6243156;23;20163;-89
2023/04/01 08:26:29;;;;;;;2.70;0.75;;;;;;;;;;6243270;23;20197;-89
2023/04/01 08:29:44;;;;;;;2.47;0.60;;;;;;;;;;6242586;23;20241;-92
2023/04/01 08:32:53;;;;;;;1.55;0.40;;;;;;;;;;6241699;23;20214;-90
2023/04/01 08:36:01;;;;;;;2.60;0.50;;;;;;;;;;6244316;23;20319;-89
2023/04/01 08:39:09;;;;;;;2.22;0.93;;;;;;;;;;6243905;23;20170;-89
2023/04/01 08:42:32;;;;;;;1.27;0.60;;;;;;;;;;6240928;23;20203;-90
2023/04/01 08:45:52;;;;;;;0.95;0.50;;;;;;;;;;6244136;23;20536;-89
2023/04/01 08:49:19;;;;;;;2.33;0.70;;;;;;;;;;6244137;23;20190;-93
2023/04/01 08:52:32;;;;;;;3.20;0.93;;;;;;;;;;6242527;23;20181;-88
2023/04/01 08:55:46;;;;;;;1.42;0.55;;;;;;;;;;6244050;23;20160;-89
2023/04/01 08:58:59;;;;;;;0.90;0.60;;;;;;;;;;6242011;23;20170;-90
2023/04/01 09:02:26;;;;;;;1.45;0.80;;;;;;;;;;6241907;23;20503;-92
2023/04/01 09:05:44;;;;;;;1.67;0.70;;;;;;;;;;6243309;23;20189;-89
2023/04/01 09:08:56;;;;;;;2.50;0.85;;;;;;;;;;6239849;23;20271;-89
2023/04/01 09:12:14;;;;;;;2.70;0.70;;;;;;;;;;6242089;23;20163;-90
2023/04/01 09:15:38;;;;;;;2.78;0.77;;;;;;;;;;6242293;23;20278;-88
2023/04/01 09:19:10;;;;;;;2.00;0.73;;;;;;;;;;6241834;23;20170;-90
2023/04/01 09:22:33;;;;;;;2.90;0.70;;;;;;;;;;6240619;23;20246;-92
2023/04/01 09:25:48;;;;;;;1.25;0.50;;;;;;;;;;6243378;23;20194;-89
2023/04/01 09:28:59;;;;;;;2.05;0.60;;;;;;;;;;6241009;23;20214;-88
2023/04/01 09:32:14;;;;;;;2.45;0.50;;;;;;;;;;6239592;23;20191;-92
2023/04/01 09:35:36;;;;;;;1.77;0.60;;;;;;;;;;6242812;23;20167;-91
2023/04/01 09:38:51;;;;;;;2.60;0.68;;;;;;;;;;6241714;23;20171;-89
2023/04/01 09:42:06;;;;;;;3.60;0.73;;;;;;;;;;6238479;23;20166;-90
2023/04/01 09:45:23;;;;;;;1.13;0.50;;;;;;;;;;6240487;23;20202;-89
2023/04/01 09:48:42;;;;;;;2.05;1.05;;;;;;;;;;6238006;23;20206;-90
2023/04/01 09:51:55;;;;;;;0.60;0.60;;;;;;;;;;6240491;23;20710;-91
2023/04/01 09:55:19;;;;;;;2.15;0.77;;;;;;;;;;6243133;23;20166;-90
2023/04/01 09:58:34;;;;;;;1.05;0.60;;;;;;;;;;6244506;23;20665;-90
2023/04/01 10:06:12;;;;;;;2.38;0.60;;;;;;;;;;6244153;23;20181;-89
2023/04/01 10:09:45;;;;;;;2.08;0.60;;;;;;;;;;6242891;23;20167;-90
2023/04/01 10:13:03;;;;;;;1.75;0.50;;;;;;;;;;6204074;23;20189;-88
2023/04/01 10:16:38;;;;;;;1.75;0.60;;;;;;;;;;6244653;23;20235;-90
2023/04/01 10:19:58;;;;;;;1.95;0.70;;;;;;;;;;6243737;23;20166;-89
2023/04/01 10:23:22;;;;;;;1.10;0.50;;;;;;;;;;6241138;23;20170;-89
2023/04/01 10:26:37;;;;;;;2.17;0.70;;;;;;;;;;6240484;23;20194;-87
2023/04/01 10:30:20;;;;;;;0.93;0.50;;;;;;;;;;6260156;23;20173;-91
2023/04/01 10:33:49;;;;;;;1.02;0.52;;;;;;;;;;6241816;23;20210;-90
2023/04/01 10:36:55;;;;;;;1.27;0.50;;;;;;;;;;6242132;23;20169;-90
2023/04/01 10:40:31;;;;;;;1.70;0.70;;;;;;;;;;6241505;23;20534;-87
2023/04/01 10:44:11;;;;;;;2.25;0.60;;;;;;;;;;6255848;23;20171;-89
2023/04/01 10:47:35;;;;;;;0.75;0.60;;;;;;;;;;6240927;23;20171;-92
2023/04/01 14:06:29;;;;;;;0.30;0.30;;;;;;;;;;6145448;22;1400448;-91
2023/04/01 14:09:44;;;;;;;0.30;0.30;;;;;;;;;;6196841;23;20172;-90
2023/04/01 14:12:52;;;;;;;0.30;0.30;;;;;;;;;;6197112;23;20343;-91
2023/04/01 14:16:15;;;;;;;0.30;0.30;;;;;;;;;;6196917;23;20631;-90
2023/04/01 14:19:28;;;;;;;0.75;0.75;;;;;;;;;;6196281;23;20231;-89
2023/04/01 14:22:44;;;;;;;0.40;0.40;;;;;;;;;;6195447;23;20211;-90
2023/04/01 14:25:58;;;;;;;0.30;0.30;;;;;;;;;;6195802;23;20187;-90
2023/04/01 14:29:07;;;;;;;0.30;0.30;;;;;;;;;;6198072;23;20192;-93
2023/04/01 14:32:14;;;;;;;0.30;0.30;;;;;;;;;;6198005;23;20195;-91
2023/04/01 14:35:31;;;;;;;0.40;0.40;;;;;;;;;;6197398;23;20321;-92
2023/04/01 14:38:45;;;;;;;0.30;0.30;;;;;;;;;;6198160;23;20172;-91
2023/04/01 14:42:00;;;;;;;0.30;0.30;;;;;;;;;;6202908;23;20180;-89
2023/04/01 14:45:20;;;;;;;3.60;1.20;;;;;;;;;;6199050;23;20683;-88
2023/04/01 14:48:29;;;;;;;0.28;0.28;;;;;;;;;;6198336;23;20168;-90
2023/04/01 14:51:37;;;;;;;0.30;0.30;;;;;;;;;;6196506;23;20176;-90
2023/04/01 14:54:44;;;;;;;1.38;0.90;;;;;;;;;;6199962;23;20176;-88
2023/04/01 14:58:07;;;;;;;0.30;0.30;;;;;;;;;;6199179;23;20155;-88
2023/04/01 15:01:26;;;;;;;0.30;0.30;;;;;;;;;;6202628;23;20176;-88
2023/04/01 15:04:43;;;;;;;0.30;0.30;;;;;;;;;;6202601;23;20219;-89
2023/04/01 15:08:03;;;;;;;0.30;0.30;;;;;;;;;;6199306;23;20176;-91
2023/04/01 15:11:25;;;;;;;0.30;0.30;;;;;;;;;;6200952;23;20176;-90
2023/04/01 15:14:38;;;;;;;0.38;0.38;;;;;;;;;;6199424;23;20764;-90
2023/04/01 15:17:47;;;;;;;0.50;0.50;;;;;;;;;;6201719;23;20172;-91
2023/04/01 15:21:12;;;;;;;0.38;0.38;;;;;;;;;;6202160;23;20171;-92
2023/04/01 15:24:22;;;;;;;0.40;0.40;;;;;;;;;;6201636;23;20620;-91
2023/04/01 15:27:34;;;;;;;0.30;0.30;;;;;;;;;;6201262;23;20167;-89
2023/04/01 15:30:43;;;;;;;0.40;0.40;;;;;;;;;;6200979;23;20515;-88
2023/04/01 15:33:51;;;;;;;0.95;0.68;;;;;;;;;;6199805;23;20195;-88
2023/04/01 15:36:59;;;;;;;0.68;0.50;;;;;;;;;;6202206;23;20211;-88
2023/04/01 15:40:10;;;;;;;0.30;0.30;;;;;;;;;;6202165;23;20175;-90
2023/04/01 15:43:25;;;;;;;0.30;0.30;;;;;;;;;;6199081;23;20164;-91
2023/04/01 15:46:45;;;;;;;0.30;0.30;;;;;;;;;;6200505;23;20297;-90
2023/04/01 15:49:54;;;;;;;0.30;0.30;;;;;;;;;;6204119;23;20175;-90
2023/04/01 15:53:13;;;;;;;0.30;0.30;;;;;;;;;;6199518;23;20200;-89
2023/04/01 15:56:25;;;;;;;0.30;0.30;;;;;;;;;;6201141;23;20171;-90
2023/04/01 15:59:39;;;;;;;0.30;0.30;;;;;;;;;;6201816;23;20243;-87
2023/04/01 16:02:48;;;;;;;0.30;0.30;;;;;;;;;;6202260;23;20176;-89
2023/04/01 16:06:13;;;;;;;0.30;0.30;;;;;;;;;;6198651;23;20203;-89
2023/04/01 16:09:26;;;;;;;3.92;0.50;;;;;;;;;;6198640;23;20172;-91
2023/04/01 16:12:38;;;;;;;0.30;0.30;;;;;;;;;;6197144;23;20191;-93
2023/04/01 16:15:59;;;;;;;0.30;0.30;;;;;;;;;;6196316;23;20167;-90
2023/04/01 16:19:15;;;;;;;0.30;0.30;;;;;;;;;;6197807;23;20172;-92
2023/04/01 16:22:25;;;;;;;0.40;0.40;;;;;;;;;;6196153;23;20164;-89
2023/04/01 16:25:35;;;;;;;0.45;0.45;;;;;;;;;;6197811;23;20160;-89
2023/04/01 16:28:46;;;;;;;0.47;0.45;;;;;;;;;;6198862;23;20251;-91
2023/04/01 16:31:55;;;;;;;0.35;0.35;;;;;;;;;;6199689;23;20179;-89
2023/04/01 16:35:06;;;;;;;0.40;0.40;;;;;;;;;;6196868;23;20237;-87
2023/04/01 16:38:15;;;;;;;0.38;0.38;;;;;;;;;;6193917;23;20167;-91
2023/04/01 16:41:23;;;;;;;0.38;0.38;;;;;;;;;;6196424;23;20172;-89
2023/04/01 16:44:28;;;;;;;0.40;0.40;;;;;;;;;;6196913;23;20235;-91
2023/04/01 16:47:37;;;;;;;0.47;0.47;;;;;;;;;;6197300;23;20601;-91
2023/04/01 16:50:47;;;;;;;0.30;0.30;;;;;;;;;;6195225;23;20184;-91
2023/04/01 16:53:54;;;;;;;0.40;0.40;;;;;;;;;;6195780;23;20195;-89
2023/04/01 16:57:04;;;;;;;0.32;0.32;;;;;;;;;;6196316;23;20188;-91
2023/04/01 17:00:17;;;;;;;0.40;0.40;;;;;;;;;;6197000;23;20172;-91
2023/04/01 17:03:29;;;;;;;0.40;0.40;;;;;;;;;;6197868;23;20167;-90
2023/04/01 17:06:38;;;;;;;0.45;0.45;;;;;;;;;;6196811;23;20211;-88
2023/04/01 17:09:48;;;;;;;0.30;0.30;;;;;;;;;;6198545;23;20176;-89
2023/04/01 17:13:00;;;;;;;0.30;0.30;;;;;;;;;;6197252;23;20191;-91
2023/04/01 17:16:32;;;;;;;0.35;0.35;;;;;;;;;;6199059;23;20530;-91
2023/04/01 17:19:58;;;;;;;0.38;0.38;;;;;;;;;;6197087;23;20160;-87
2023/04/01 17:23:08;;;;;;;0.50;0.50;;;;;;;;;;6198344;23;20164;-92
2023/04/01 17:26:28;;;;;;;0.30;0.30;;;;;;;;;;6198326;23;20575;-92
2023/04/01 17:29:53;;;;;;;0.40;0.40;;;;;;;;;;6196435;23;20220;-91
2023/04/01 17:33:15;;;;;;;0.30;0.30;;;;;;;;;;6197846;23;20191;-91
2023/04/01 17:36:27;;;;;;;0.38;0.38;;;;;;;;;;6197977;23;20171;-90
2023/04/01 17:39:40;;;;;;;0.52;0.52;;;;;;;;;;6198510;23;20288;-93
2023/04/01 17:42:48;;;;;;;0.30;0.30;;;;;;;;;;6197493;23;20164;-90
2023/04/01 17:45:55;;;;;;;1.13;0.93;;;;;;;;;;6198282;23;20156;-92
2023/04/01 17:49:04;;;;;;;1.33;0.98;;;;;;;;;;6200596;23;20499;-92
2023/04/01 17:52:24;;;;;;;0.38;0.38;;;;;;;;;;6201334;23;20172;-90
2023/04/01 17:55:45;;;;;;;2.33;1.17;;;;;;;;;;6199784;23;20172;-90
2023/04/01 17:58:57;;;;;;;1.02;0.85;;;;;;;;;;6199044;23;20172;-89
2023/04/01 18:02:06;;;;;;;2.47;1.58;;;;;;;;;;6204363;23;20196;-88
2023/04/01 18:05:32;;;;;;;0.30;0.30;;;;;;;;;;6200379;23;20192;-90
2023/04/01 18:08:46;;;;;;;0.88;0.88;;;;;;;;;;6200096;23;20172;-91
2023/04/01 18:12:01;;;;;;;0.40;0.40;;;;;;;;;;6204728;23;20175;-92
2023/04/01 18:19:23;;;;;;;2.65;1.77;;;;;;;;;;6201614;23;20167;-87
2023/04/01 18:23:07;;;;;;;3.72;0.57;;;;;;;;;;6197137;23;20167;-90
2023/04/01 18:26:15;;;;;;;0.50;0.50;;;;;;;;;;6196330;23;20223;-92
2023/04/01 18:29:29;;;;;;;0.43;0.43;;;;;;;;;;6198827;23;20172;-89
2023/04/01 18:32:36;;;;;;;0.77;0.35;;;;;;;;;;6194492;23;20793;-90
2023/04/01 18:35:49;;;;;;;0.30;0.30;;;;;;;;;;6196893;23;20670;-93
2023/04/01 18:38:57;;;;;;;0.60;0.60;;;;;;;;;;6196828;23;20614;-90
2023/04/01 18:42:05;;;;;;;0.30;0.30;;;;;;;;;;6195713;23;20502;-90
2023/04/01 18:45:20;;;;;;;0.45;0.45;;;;;;;;;;6196248;23;20168;-88
2023/04/01 18:48:43;;;;;;;0.68;0.65;;;;;;;;;;6197913;23;20176;-88
2023/04/01 18:51:53;;;;;;;0.30;0.30;;;;;;;;;;6198030;23;20171;-90
2023/04/01 18:55:19;;;;;;;0.60;0.60;;;;;;;;;;6195739;23;20656;-92
2023/04/01 18:58:30;;;;;;;0.63;0.60;;;;;;;;;;6196267;23;20171;-91
2023/04/01 19:01:44;;;;;;;0.40;0.40;;;;;;;;;;6194762;23;20172;-92
2023/04/01 19:04:55;;;;;;;1.30;0.93;;;;;;;;;;6194689;23;20195;-90
2023/04/01 19:08:16;;;;;;;0.50;0.50;;;;;;;;;;6194818;23;20176;-89
2023/04/01 19:11:27;;;;;;;4.22;1.38;;;;;;;;;;6195259;23;20779;-91
2023/04/01 19:14:37;;;;;;;0.73;0.73;;;;;;;;;;6196614;23;20195;-90
2023/04/01 19:17:50;;;;;;;1.40;0.60;;;;;;;;;;6197259;23;20172;-92
2023/04/01 19:20:57;;;;;;;0.30;0.30;;;;;;;;;;6196692;23;20604;-91
2023/04/01 19:24:20;;;;;;;3.53;0.93;;;;;;;;;;6195597;23;20168;-89
2023/04/01 19:27:31;;;;;;;0.40;0.40;;;;;;;;;;6196687;23;20260;-90
2023/04/01 19:30:44;;;;;;;3.97;0.60;;;;;;;;;;6198312;23;20178;-91
2023/04/01 19:33:54;;;;;;;1.38;1.25;;;;;;;;;;6198011;23;20223;-91
2023/04/01 19:37:01;;;;;;;3.10;1.15;;;;;;;;;;6198645;23;20232;-89
2023/04/01 19:40:18;;;;;;;0.50;0.50;;;;;;;;;;6197137;23;20213;-92
2023/04/01 19:43:37;;;;;;;1.70;1.08;;;;;;;;;;6197862;23;20228;-90
2023/04/01 19:46:45;;;;;;;1.10;1.05;;;;;;;;;;6196889;23;20611;-91
2023/04/01 19:50:03;;;;;;;0.45;0.45;;;;;;;;;;6197116;23;20223;-91
2023/04/01 19:53:16;;;;;;;3.65;1.45;;;;;;;;;;6195239;23;20215;-90
2023/04/01 19:56:22;;;;;;;0.50;0.50;;;;;;;;;;6197207;23;20235;-91
2023/04/01 19:59:32;;;;;;;0.60;0.60;;;;;;;;;;6199138;23;20228;-92
2023/04/01 20:02:41;;;;;;;2.38;1.10;;;;;;;;;;6199408;23;20171;-90
2023/04/01 20:06:11;;;;;;;0.98;0.68;;;;;;;;;;6197865;23;20198;-89
2023/04/01 20:09:31;;;;;;;0.50;0.50;;;;;;;;;;6198137;23;20184;-91
2023/04/01 20:12:44;;;;;;;0.30;0.30;;;;;;;;;;6197541;23;20279;-90
2023/04/01 20:15:57;;;;;;;0.50;0.50;;;;;;;;;;6195573;23;20168;-93
2023/04/01 20:19:03;;;;;;;0.30;0.30;;;;;;;;;;6198117;23;20168;-90
2023/04/01 20:25:48;;;;;;;0.65;0.65;;;;;;;;;;6195189;23;20160;-93
2023/04/01 20:29:02;;;;;;;0.68;0.68;;;;;;;;;;6201177;23;20245;-89
2023/04/01 20:32:13;;;;;;;0.88;0.75;;;;;;;;;;6196845;23;20211;-89
2023/04/01 20:35:32;;;;;;;1.80;0.70;;;;;;;;;;6198626;23;20195;-91
2023/04/01 20:38:54;;;;;;;0.30;0.30;;;;;;;;;;6196201;23;20241;-89
2023/04/01 20:42:06;;;;;;;0.30;0.30;;;;;;;;;;6198476;23;20255;-92
2023/04/01 20:45:18;;;;;;;0.52;0.52;;;;;;;;;;6197401;23;20191;-90
2023/04/01 20:48:30;;;;;;;1.98;1.13;;;;;;;;;;6198491;23;20176;-89
2023/04/01 20:51:39;;;;;;;0.30;0.30;;;;;;;;;;6197069;23;20167;-91
2023/04/01 20:54:51;;;;;;;0.40;0.40;;;;;;;;;;6197298;23;20191;-89
2023/04/01 20:58:15;;;;;;;2.05;0.98;;;;;;;;;;6198377;23;20175;-92
2023/04/01 21:01:33;;;;;;;0.40;0.40;;;;;;;;;;6197619;23;20807;-91
2023/04/01 21:04:48;;;;;;;0.40;0.40;;;;;;;;;;6196628;23;20754;-89
2023/04/01 21:08:01;;;;;;;0.40;0.40;;;;;;;;;;6197219;23;20167;-93
2023/04/01 21:11:09;;;;;;;1.40;0.68;;;;;;;;;;6197329;23;20174;-90
2023/04/01 21:14:33;;;;;;;0.30;0.30;;;;;;;;;;6196184;23;20253;-91
2023/04/01 21:17:42;;;;;;;0.40;0.40;;;;;;;;;;6196488;23;20243;-90
2023/04/01 21:20:56;;;;;;;3.85;1.60;;;;;;;;;;6197918;23;20527;-89
2023/04/01 21:24:10;;;;;;;4.50;2.05;;;;;;;;;;6198821;23;20221;-91
2023/04/01 21:27:22;;;;;;;4.60;1.75;;;;;;;;;;6199925;23;20164;-92
2023/04/01 21:30:40;;;;;;;2.83;1.77;;;;;;;;;;6199300;23;20168;-93
2023/04/01 21:33:51;;;;;;;3.10;1.60;;;;;;;;;;6198511;23;20319;-88
2023/04/01 21:37:03;;;;;;;8.02;3.53;;;;;;;;;;6198627;23;20172;-90
2023/04/01 21:40:30;;;;;;;2.78;1.50;;;;;;;;;;6199612;23;20155;-88
2023/04/01 21:43:55;;;;;;;5.97;1.80;;;;;;;;;;6181328;23;20284;-92
2023/04/01 21:47:15;;;;;;;3.92;1.70;;;;;;;;;;6195831;23;20172;-90
2023/04/01 21:50:35;;;;;;;3.72;1.35;;;;;;;;;;6196218;23;20219;-90
2023/04/01 21:53:58;;;;;;;5.20;1.60;;;;;;;;;;6196307;23;20630;-90
2023/04/01 21:57:30;;;;;;;2.50;1.25;;;;;;;;;;6195954;23;20171;-89
2023/04/01 22:00:39;;;;;;;2.50;1.42;;;;;;;;;;6195985;23;20175;-91
2023/04/01 22:07:37;;;;;;;5.68;2.03;;;;;;;;;;6196336;23;20151;-89
2023/04/01 22:10:48;;;;;;;2.38;1.30;;;;;;;;;;6197711;23;20175;-93
2023/04/01 22:14:06;;;;;;;7.43;2.97;;;;;;;;;;6196619;23;20192;-89
2023/04/01 22:17:18;;;;;;;3.95;1.20;;;;;;;;;;6196642;23;20218;-91
2023/04/01 22:20:26;;;;;;;1.95;1.05;;;;;;;;;;6197302;23;20506;-91
2023/04/01 22:23:36;;;;;;;1.38;1.00;;;;;;;;;;6197076;23;20179;-88
2023/04/01 22:26:45;;;;;;;2.70;1.20;;;;;;;;;;6195498;23;20176;-89
2023/04/01 22:29:55;;;;;;;3.35;1.50;;;;;;;;;;6196756;23;20215;-91
2023/04/01 22:33:02;;;;;;;7.63;1.33;;;;;;;;;;6197363;23;20187;-90
2023/04/01 22:36:11;;;;;;;3.72;1.20;;;;;;;;;;6195454;23;20169;-90
2023/04/01 22:39:34;;;;;;;2.03;1.00;;;;;;;;;;6198402;23;20175;-91
2023/04/01 22:42:44;;;;;;;3.20;1.17;;;;;;;;;;6197991;23;20152;-90
2023/04/01 22:46:05;;;;;;;3.38;1.10;;;;;;;;;;6197282;23;20172;-93
2023/04/01 22:49:16;;;;;;;4.18;1.35;;;;;;;;;;6197991;23;20176;-90
2023/04/01 22:52:24;;;;;;;3.15;1.63;;;;;;;;;;6197197;23;20179;-91